Ione, California
Current Conditions -  °F | °C
As of 10:45 AM on Saturday 20 Dec 2014 (Local Time) from KMHR Reporting Station
Overcast Overcast  
Wind Chill: 55°   Ceiling: 1800
Heat Index: 55°   Visibility: 10mi
Dew Point: 55°   Wind: 7mph
Humidity: 100%   Direction: 170°S
Pressure: 30.24"   Gusts: NA
Location:  38.35°N, 120.93°W
Report Text: KMHR 201845Z 17006KT 10SM BKN018 OVC030 13/13 A3024
Loading
Personal Weather Stations






























Interactive Weather Map New forecast layout! Learn more

10-Day Weather Forecast

Advertisements
Track Severe Weather on mobile